createdAt,value
2022-08-11T00:04:37.945Z,17.72
2022-08-11T00:10:40.469Z,17.50
2022-08-11T00:16:44.227Z,17.53
2022-08-11T00:22:48.131Z,17.38
2022-08-11T00:28:52.159Z,17.36
2022-08-11T00:35:51.906Z,17.23
2022-08-11T00:41:55.785Z,17.13
2022-08-11T00:48:01.656Z,16.84
2022-08-11T00:54:52.704Z,16.77
2022-08-11T01:01:22.835Z,16.83
2022-08-11T01:08:00.528Z,16.71
2022-08-11T01:14:51.447Z,16.58
2022-08-11T01:21:35.999Z,16.19
2022-08-11T01:27:56.535Z,16.24
2022-08-11T01:34:44.129Z,16.05
2022-08-11T01:41:58.266Z,15.95
2022-08-11T01:48:23.193Z,16.03
2022-08-11T01:54:37.996Z,16.04
2022-08-11T02:01:16.352Z,15.85
2022-08-11T02:07:49.817Z,15.82
2022-08-11T02:14:15.221Z,15.91
2022-08-11T02:21:15.541Z,15.80
2022-08-11T02:27:26.786Z,15.64
2022-08-11T02:33:36.610Z,15.45
2022-08-11T02:39:59.577Z,15.36
2022-08-11T02:46:05.329Z,15.28
2022-08-11T02:52:32.417Z,15.36
2022-08-11T02:59:17.983Z,15.15
2022-08-11T03:05:56.754Z,15.07
2022-08-11T03:12:25.707Z,14.78
2022-08-11T03:18:56.223Z,14.92
2022-08-11T03:25:18.231Z,14.98
2022-08-11T03:31:52.261Z,14.55
2022-08-11T03:38:03.430Z,14.70
2022-08-11T03:44:47.128Z,14.76
2022-08-11T03:51:09.879Z,14.61
2022-08-11T03:57:27.159Z,14.47
2022-08-11T04:04:09.518Z,14.55
2022-08-11T04:10:33.112Z,14.49
2022-08-11T04:17:22.631Z,14.41
2022-08-11T04:24:35.707Z,14.45
2022-08-11T04:31:50.884Z,14.54
2022-08-11T04:38:44.846Z,14.66
2022-08-11T04:45:25.421Z,14.79
2022-08-11T04:52:19.295Z,14.90
2022-08-11T04:59:31.615Z,15.17
2022-08-11T05:06:13.936Z,15.51
2022-08-11T05:12:53.460Z,15.76
2022-08-11T05:19:16.195Z,16.10
2022-08-11T05:26:45.172Z,16.32
2022-08-11T05:32:38.951Z,16.64
2022-08-11T05:39:08.038Z,16.86
2022-08-11T05:46:01.262Z,17.08
2022-08-11T05:52:17.064Z,17.44
2022-08-11T05:58:20.615Z,17.77
2022-08-11T06:04:24.750Z,18.07
2022-08-11T06:10:38.149Z,18.33
2022-08-11T06:16:42.797Z,18.63
2022-08-11T06:22:52.831Z,19.03
2022-08-11T06:28:59.583Z,19.33
2022-08-11T06:35:46.069Z,19.68
2022-08-11T06:42:09.392Z,20.15
2022-08-11T06:48:20.047Z,20.44
2022-08-11T06:54:23.203Z,20.93
2022-08-11T07:00:29.593Z,21.24
2022-08-11T07:07:29.700Z,21.64
2022-08-11T07:13:54.160Z,22.09
2022-08-11T07:20:19.813Z,22.84
2022-08-11T07:26:44.739Z,23.41
2022-08-11T07:32:58.165Z,23.64
2022-08-11T07:39:01.227Z,24.44
2022-08-11T07:45:26.671Z,24.66
2022-08-11T07:51:47.526Z,25.23
2022-08-11T07:58:15.757Z,25.65
2022-08-11T08:04:43.094Z,26.36
2022-08-11T08:11:07.321Z,26.72
2022-08-11T08:17:28.627Z,27.38
2022-08-11T08:23:34.381Z,27.89
2022-08-11T08:29:57.231Z,28.38
2022-08-11T08:36:14.004Z,28.93
2022-08-11T08:42:29.817Z,29.43
2022-08-11T08:48:33.464Z,29.69
2022-08-11T08:54:42.256Z,29.90
2022-08-11T09:00:47.370Z,30.19
2022-08-11T09:06:52.305Z,30.82
2022-08-11T09:12:55.215Z,30.96
2022-08-11T09:19:00.448Z,31.16
2022-08-11T09:25:21.883Z,30.89
2022-08-11T09:31:24.207Z,31.79
2022-08-11T09:37:54.442Z,32.48
2022-08-11T09:44:19.288Z,31.76
2022-08-11T09:50:22.665Z,31.33
2022-08-11T09:56:44.161Z,31.75
2022-08-11T10:02:49.722Z,31.96
2022-08-11T10:08:54.643Z,31.93
2022-08-11T10:15:34.972Z,32.51
2022-08-11T10:22:07.347Z,32.48
2022-08-11T10:28:17.123Z,33.28
2022-08-11T10:34:32.955Z,33.98
2022-08-11T10:40:40.328Z,34.94
2022-08-11T10:47:00.882Z,35.97
2022-08-11T10:53:22.307Z,37.00
2022-08-11T10:59:28.572Z,37.88
2022-08-11T11:05:32.821Z,38.72
2022-08-11T11:11:58.337Z,38.10
2022-08-11T11:18:19.484Z,38.56
2022-08-11T11:24:57.687Z,38.86
2022-08-11T11:31:15.819Z,39.00
2022-08-11T11:37:18.999Z,40.44
2022-08-11T11:43:21.260Z,41.72
2022-08-11T11:49:28.713Z,42.62
2022-08-11T11:55:31.792Z,41.53
2022-08-11T12:01:34.720Z,42.48
2022-08-11T12:08:05.030Z,43.41
2022-08-11T12:14:20.241Z,42.95
2022-08-11T12:20:33.354Z,44.02
2022-08-11T12:27:15.785Z,43.65
2022-08-11T12:33:24.196Z,43.92
2022-08-11T12:40:15.868Z,44.09
2022-08-11T12:46:37.730Z,43.72
2022-08-11T12:52:49.424Z,43.19
2022-08-11T12:58:53.581Z,45.10
2022-08-11T13:04:59.196Z,46.16
2022-08-11T13:11:21.548Z,45.80
2022-08-11T13:17:43.615Z,46.46
2022-08-11T13:24:01.507Z,45.13
2022-08-11T13:30:39.087Z,45.61
2022-08-11T13:36:43.510Z,43.81
2022-08-11T13:42:46.973Z,41.39
2022-08-11T13:48:50.683Z,39.02
2022-08-11T13:55:03.608Z,39.78
2022-08-11T14:02:03.453Z,40.97
2022-08-11T14:07:39.576Z,42.11
2022-08-11T14:13:48.448Z,42.43
2022-08-11T14:19:53.779Z,44.65
2022-08-11T14:26:16.316Z,46.30
2022-08-11T14:32:22.501Z,47.39
2022-08-11T14:38:24.832Z,47.50
2022-08-11T14:44:46.159Z,46.79
2022-08-11T14:50:48.467Z,45.76
2022-08-11T14:56:50.614Z,44.31
2022-08-11T15:03:13.413Z,43.23
2022-08-11T15:09:16.884Z,40.98
2022-08-11T15:15:39.075Z,42.59
2022-08-11T15:21:59.944Z,43.79
2022-08-11T15:28:22.549Z,44.42
2022-08-11T15:34:47.499Z,44.57
2022-08-11T15:41:11.190Z,45.11
2022-08-11T15:47:14.407Z,44.01
2022-08-11T15:53:43.548Z,44.14
2022-08-11T16:00:24.543Z,43.19
2022-08-11T16:06:28.006Z,42.34
2022-08-11T16:13:05.308Z,42.22
2022-08-11T16:19:11.223Z,41.36
2022-08-11T16:27:03.734Z,42.35
2022-08-11T16:32:05.247Z,42.18
2022-08-11T16:38:26.840Z,41.46
2022-08-11T16:44:48.388Z,40.33
2022-08-11T16:50:50.956Z,40.33
2022-08-11T16:56:54.303Z,40.18
2022-08-11T17:03:19.331Z,40.27
2022-08-11T17:09:43.321Z,39.48
2022-08-11T17:16:08.468Z,38.32
2022-08-11T17:22:29.442Z,38.66
2022-08-11T17:28:33.850Z,38.51
2022-08-11T17:34:55.608Z,38.19
2022-08-11T17:41:23.297Z,37.89
2022-08-11T17:47:46.751Z,37.94
2022-08-11T17:54:23.899Z,37.76
2022-08-11T18:00:27.909Z,37.65
2022-08-11T18:06:34.544Z,37.52
2022-08-11T18:12:55.775Z,37.44
2022-08-11T18:19:16.953Z,36.45
2022-08-11T18:25:47.650Z,34.93
2022-08-11T18:32:11.592Z,33.57
2022-08-11T18:38:46.121Z,31.48
2022-08-11T18:45:09.508Z,29.67
2022-08-11T18:51:36.882Z,28.38
2022-08-11T18:57:59.368Z,27.10
2022-08-11T19:04:23.810Z,26.21
2022-08-11T19:10:50.636Z,25.90
2022-08-11T19:17:13.266Z,25.28
2022-08-11T19:24:00.244Z,24.99
2022-08-11T19:30:21.392Z,24.70
2022-08-11T19:36:44.712Z,24.28
2022-08-11T19:43:14.842Z,24.21
2022-08-11T19:49:46.874Z,23.84
2022-08-11T19:56:11.052Z,23.79
2022-08-11T20:02:31.908Z,23.88
2022-08-11T20:08:58.614Z,23.62
2022-08-11T20:15:21.083Z,23.76
2022-08-11T20:21:42.797Z,23.77
2022-08-11T20:28:05.059Z,23.84
2022-08-11T20:34:28.221Z,23.67
2022-08-11T20:40:50.177Z,23.62
2022-08-11T20:47:12.987Z,23.51
2022-08-11T20:53:40.656Z,23.44
2022-08-11T21:00:02.493Z,23.36
2022-08-11T21:06:31.444Z,23.19
2022-08-11T21:12:55.432Z,23.19
2022-08-11T21:19:59.921Z,22.96
2022-08-11T21:26:42.999Z,22.91
2022-08-11T21:33:04.381Z,22.92
2022-08-11T21:39:26.839Z,22.78
2022-08-11T21:45:49.283Z,22.65
2022-08-11T21:52:09.990Z,22.57
2022-08-11T21:58:33.114Z,22.54
2022-08-11T22:04:55.184Z,22.40
2022-08-11T22:11:15.925Z,22.50
2022-08-11T22:17:57.781Z,22.48
2022-08-11T22:24:30.183Z,22.59
2022-08-11T22:30:51.254Z,22.79
2022-08-11T22:37:15.591Z,22.62
2022-08-11T22:43:48.525Z,22.66
2022-08-11T22:50:16.738Z,22.70
2022-08-11T22:56:38.997Z,22.65
2022-08-11T23:03:00.131Z,22.52
2022-08-11T23:09:23.020Z,22.17
2022-08-11T23:15:44.307Z,21.62
2022-08-11T23:22:06.868Z,21.29
2022-08-11T23:28:32.292Z,20.83
2022-08-11T23:35:04.364Z,20.57
2022-08-11T23:41:26.327Z,20.46
2022-08-11T23:47:50.328Z,20.37
2022-08-11T23:54:11.629Z,20.19
